Time;durP1;ratioP1;P1;durP2;ratioP2;P2;SDS_P1;SDS_P2;PMS_P1;PMS_P2;Temp;Humidity;BMP_temperature;BMP_pressure;BME280_temperature;BME280_humidity;BME280_pressure;Samples;Min_cycle;Max_cycle;Signal;HPM_P1;HPM_P2
2021/08/16 04:57:31;;;;;;;16.70;8.20;;;;;;;28.95;47.78;98435.25;1683025;81;21174;-56
2021/08/16 05:00:00;;;;;;;37.83;10.60;;;;;;;29.35;46.86;98433.98;1674755;84;21051;-55
2021/08/16 05:02:28;;;;;;;40.30;10.30;;;;;;;29.60;46.36;98442.91;1677731;84;21043;-59
2021/08/16 05:05:15;;;;;;;41.15;10.88;;;;;;;29.78;45.86;98446.14;1673600;84;21059;-55
2021/08/16 05:07:31;;;;;;;32.08;10.03;;;;;;;30.01;45.47;98436.10;1669188;86;21548;-61
2021/08/16 05:10:05;;;;;;;28.12;9.55;;;;;;;30.27;45.04;98441.09;1673107;84;21102;-58
2021/08/16 05:12:33;;;;;;;29.63;10.15;;;;;;;30.50;44.50;98442.09;1674396;86;21531;-54
2021/08/16 05:15:03;;;;;;;20.62;9.18;;;;;;;30.66;44.19;98447.55;1674651;84;21585;-59
2021/08/16 05:17:35;;;;;;;20.32;8.78;;;;;;;30.82;44.03;98453.03;1669765;85;21569;-56
2021/08/16 05:20:07;;;;;;;23.73;9.23;;;;;;;30.91;43.79;98451.72;1674045;86;21037;-59
2021/08/16 05:22:37;;;;;;;16.57;8.73;;;;;;;31.01;43.51;98442.78;1674412;84;21059;-61
2021/08/16 05:25:06;;;;;;;16.55;8.33;;;;;;;31.00;43.64;98435.20;1643724;85;21070;-55
2021/08/16 05:27:35;;;;;;;22.87;8.70;;;;;;;31.09;43.50;98433.09;1670815;86;21083;-53
2021/08/16 05:30:05;;;;;;;20.20;8.38;;;;;;;31.30;43.16;98429.28;1671032;86;21019;-56
2021/08/16 05:32:33;;;;;;;21.33;8.88;;;;;;;31.44;42.71;98425.53;1670903;86;21074;-59
2021/08/16 05:35:06;;;;;;;18.07;8.53;;;;;;;31.46;42.76;98429.45;1673121;84;21058;-59
2021/08/16 05:37:37;;;;;;;17.73;8.33;;;;;;;31.48;42.54;98434.55;1697488;84;21058;-61
2021/08/16 05:40:11;;;;;;;21.07;9.23;;;;;;;31.41;42.55;98435.75;1654018;84;21054;-60
2021/08/16 05:42:39;;;;;;;18.10;8.38;;;;;;;31.22;42.89;98439.78;1700435;84;21046;-52
2021/08/16 05:45:09;;;;;;;20.75;8.60;;;;;;;31.20;43.00;98446.95;1677312;84;20944;-55
2021/08/16 05:47:37;;;;;;;18.20;8.43;;;;;;;31.26;42.77;98436.61;1680801;84;21038;-54
2021/08/16 05:50:06;;;;;;;16.97;8.33;;;;;;;31.34;42.60;98450.01;1673667;86;21518;-55
2021/08/16 05:52:35;;;;;;;18.60;8.38;;;;;;;31.43;42.62;98448.46;1674007;84;21023;-59
2021/08/16 05:55:03;;;;;;;17.62;7.50;;;;;;;31.55;42.56;98451.06;1688544;84;21018;-57
2021/08/16 05:57:31;;;;;;;15.80;8.58;;;;;;;31.68;42.24;98452.50;1717494;83;21134;-58
2021/08/16 05:59:58;;;;;;;17.70;8.25;;;;;;;31.85;42.05;98449.17;1721664;83;21020;-56
2021/08/16 06:02:26;;;;;;;13.80;7.97;;;;;;;32.04;41.99;98445.64;1691378;83;21035;-56
2021/08/16 06:04:54;;;;;;;19.12;7.72;;;;;;;32.23;41.73;98449.70;1686426;83;21083;-56
2021/08/16 06:07:22;;;;;;;16.67;7.85;;;;;;;32.37;41.62;98454.68;1701350;84;21023;-57
2021/08/16 06:09:51;;;;;;;18.95;8.38;;;;;;;32.46;41.43;98458.77;1714533;83;21528;-57
2021/08/16 06:12:19;;;;;;;16.75;8.38;;;;;;;32.56;41.12;98451.90;1730141;82;21015;-56
2021/08/16 06:14:50;;;;;;;16.75;7.92;;;;;;;32.56;40.97;98450.53;1701628;84;23324;-55
2021/08/16 06:17:18;;;;;;;20.35;7.87;;;;;;;32.46;41.19;98446.48;1701153;84;21035;-57
2021/08/16 06:19:47;;;;;;;16.87;7.92;;;;;;;32.44;41.12;98452.86;1701245;84;21122;-55
2021/08/16 06:22:15;;;;;;;15.50;7.85;;;;;;;32.52;40.89;98442.88;1701253;84;21039;-55
2021/08/16 06:24:44;;;;;;;17.42;8.10;;;;;;;32.49;40.74;98443.59;1700369;82;21039;-54
2021/08/16 06:27:12;;;;;;;19.17;7.75;;;;;;;32.49;40.99;98450.41;1701276;82;21490;-58
2021/08/16 06:29:40;;;;;;;17.67;7.58;;;;;;;32.56;41.02;98452.48;1703545;82;21058;-60
2021/08/16 06:32:08;;;;;;;19.10;8.05;;;;;;;32.70;40.77;98445.34;1707873;83;21043;-54
2021/08/16 06:34:40;;;;;;;24.67;8.40;;;;;;;32.87;40.63;98440.54;1701557;82;21484;-54
2021/08/16 06:37:05;;;;;;;16.07;7.80;;;;;;;32.95;40.27;98443.03;1706524;82;21083;-56
2021/08/16 06:39:32;;;;;;;16.37;7.37;;;;;;;32.97;39.85;98448.91;1701123;82;21046;-56
2021/08/16 06:42:00;;;;;;;25.95;7.92;;;;;;;32.94;39.66;98448.28;1711358;82;20992;-55
2021/08/16 06:44:28;;;;;;;24.60;8.75;;;;;;;32.94;39.70;98457.05;1701314;84;21015;-57
2021/08/16 06:46:56;;;;;;;16.07;7.22;;;;;;;32.98;39.69;98455.17;1702813;82;21027;-56
2021/08/16 06:49:25;;;;;;;21.70;7.80;;;;;;;33.16;39.76;98456.81;1692245;84;21549;-59
2021/08/16 06:51:52;;;;;;;22.62;8.58;;;;;;;33.33;40.02;98456.86;1701950;82;21082;-55
2021/08/16 06:54:23;;;;;;;19.95;7.25;;;;;;;33.46;39.54;98468.59;1715059;82;21067;-56
2021/08/16 06:56:51;;;;;;;18.37;7.28;;;;;;;33.59;39.25;98465.05;1699299;83;21608;-59
2021/08/16 06:59:19;;;;;;;16.70;7.17;;;;;;;33.77;39.08;98470.75;1691769;85;21039;-58
2021/08/16 07:01:49;;;;;;;17.98;7.15;;;;;;;33.87;38.72;98471.47;1691570;85;21118;-56
2021/08/16 07:04:17;;;;;;;15.03;7.58;;;;;;;33.96;38.42;98470.64;1693531;83;21039;-55
2021/08/16 07:06:46;;;;;;;16.77;7.42;;;;;;;33.92;37.96;98479.38;1730766;83;21054;-59
2021/08/16 07:09:14;;;;;;;14.47;7.00;;;;;;;33.79;37.98;98481.53;1728110;83;21467;-57
2021/08/16 07:11:41;;;;;;;16.48;7.22;;;;;;;33.46;38.19;98476.00;1710825;83;21588;-56
2021/08/16 07:14:09;;;;;;;13.62;6.37;;;;;;;33.01;38.77;98477.63;1694539;83;21118;-57
2021/08/16 07:16:38;;;;;;;11.15;6.58;;;;;;;32.73;39.46;98480.06;1694392;83;21518;-59
2021/08/16 07:19:06;;;;;;;28.50;7.90;;;;;;;32.48;39.57;98464.63;1700840;84;21593;-59
2021/08/16 07:21:34;;;;;;;14.23;6.55;;;;;;;32.23;39.28;98476.97;1701357;84;21517;-61
2021/08/16 07:24:03;;;;;;;16.27;6.50;;;;;;;32.02;39.55;98477.94;1701106;84;21083;-59
2021/08/16 07:26:31;;;;;;;17.67;6.67;;;;;;;31.82;39.95;98473.04;1701332;84;21003;-59
2021/08/16 07:28:58;;;;;;;18.45;6.95;;;;;;;31.45;40.40;98474.19;1702151;83;21047;-58
2021/08/16 07:31:26;;;;;;;13.72;6.92;;;;;;;31.21;41.08;98471.66;1701009;83;21059;-58
2021/08/16 07:33:54;;;;;;;16.15;6.80;;;;;;;31.11;41.34;98477.64;1701268;84;21243;-57
2021/08/16 07:36:22;;;;;;;19.07;6.95;;;;;;;31.06;41.09;98475.97;1726242;83;21078;-59
2021/08/16 07:38:51;;;;;;;14.93;6.83;;;;;;;30.93;41.44;98478.00;1704044;83;21545;-61
2021/08/16 07:41:19;;;;;;;17.55;7.00;;;;;;;30.85;41.68;98467.27;1696129;84;21074;-64
2021/08/16 07:43:49;;;;;;;18.42;7.22;;;;;;;30.84;41.93;98467.06;1691893;83;21061;-60
2021/08/16 07:46:17;;;;;;;12.95;6.72;;;;;;;30.82;41.81;98469.36;1691587;85;21042;-57
2021/08/16 07:48:45;;;;;;;20.00;7.17;;;;;;;30.64;42.10;98466.16;1695038;83;21028;-56
2021/08/16 07:51:13;;;;;;;17.32;7.17;;;;;;;30.47;42.46;98470.00;1694884;83;21046;-58
2021/08/16 07:53:45;;;;;;;15.18;7.50;;;;;;;30.37;42.63;98473.22;1722413;83;21040;-60
2021/08/16 07:56:13;;;;;;;14.05;7.37;;;;;;;30.28;43.06;98476.65;1691787;83;21099;-58
2021/08/16 07:58:44;;;;;;;15.63;7.15;;;;;;;30.22;43.17;98472.03;1700376;83;21535;-57
2021/08/16 08:01:14;;;;;;;14.13;7.05;;;;;;;30.20;42.88;98468.09;1732094;83;21054;-62
2021/08/16 08:03:42;;;;;;;14.60;7.10;;;;;;;30.10;43.17;98470.13;1731763;83;21064;-60
2021/08/16 08:06:10;;;;;;;27.82;7.17;;;;;;;30.05;43.10;98472.30;1731498;83;21118;-56
2021/08/16 08:08:39;;;;;;;19.67;7.53;;;;;;;30.00;43.65;98462.48;1718953;83;21039;-58
2021/08/16 08:11:07;;;;;;;19.75;7.05;;;;;;;29.99;44.34;98469.60;1726216;82;21047;-60
2021/08/16 08:13:35;;;;;;;17.37;7.25;;;;;;;29.92;44.10;98469.41;1708296;83;21046;-57
2021/08/16 08:16:03;;;;;;;16.48;6.87;;;;;;;29.84;44.72;98469.21;1702803;84;21007;-57
2021/08/16 08:18:30;;;;;;;15.05;7.50;;;;;;;29.77;44.46;98466.30;1704989;83;21011;-57
2021/08/16 08:20:58;;;;;;;17.17;8.03;;;;;;;29.75;44.71;98465.04;1731697;83;21003;-58
2021/08/16 08:23:27;;;;;;;22.98;7.10;;;;;;;29.67;44.57;98465.41;1708295;83;21447;-59
2021/08/16 08:25:55;;;;;;;14.47;7.40;;;;;;;29.55;45.04;98462.73;1701066;84;21074;-59
2021/08/16 08:28:23;;;;;;;12.78;6.67;;;;;;;29.51;44.81;98463.14;1700960;84;21035;-57
2021/08/16 08:30:52;;;;;;;19.12;7.55;;;;;;;29.51;45.10;98460.43;1704079;84;21623;-60
2021/08/16 08:33:20;;;;;;;12.30;6.92;;;;;;;29.48;45.18;98457.06;1706187;83;21106;-63
2021/08/16 08:35:49;;;;;;;15.40;6.92;;;;;;;29.38;45.05;98457.52;1702252;84;21945;-57
2021/08/16 08:38:17;;;;;;;16.02;7.10;;;;;;;29.27;45.37;98453.11;1702833;84;21066;-60
2021/08/16 08:40:45;;;;;;;11.93;6.83;;;;;;;29.21;45.52;98456.63;1693978;84;21090;-57
2021/08/16 08:43:16;;;;;;;16.10;6.80;;;;;;;29.15;45.73;98469.41;1694442;84;21026;-58
2021/08/16 08:45:45;;;;;;;16.70;6.65;;;;;;;29.08;45.70;98469.41;1673143;84;21079;-61
2021/08/16 08:48:17;;;;;;;14.55;7.55;;;;;;;29.03;45.84;98463.41;1680932;84;21038;-58
2021/08/16 08:50:42;;;;;;;13.93;7.47;;;;;;;28.96;46.30;98459.91;1697362;83;21505;-56
2021/08/16 08:53:10;;;;;;;14.87;7.05;;;;;;;28.90;46.19;98457.70;1694807;85;21101;-62
2021/08/16 08:55:37;;;;;;;16.48;7.20;;;;;;;28.81;46.21;98459.19;1695199;83;21104;-61
2021/08/16 08:58:06;;;;;;;14.30;7.15;;;;;;;28.78;46.71;98461.98;1708414;83;21051;-59
2021/08/16 09:00:36;;;;;;;16.65;6.90;;;;;;;28.81;47.00;98464.04;1704275;84;21044;-61
2021/08/16 09:03:04;;;;;;;15.98;6.95;;;;;;;28.89;47.03;98464.27;1697876;84;21004;-58
2021/08/16 09:05:48;;;;;;;14.20;6.40;;;;;;;28.92;47.42;98461.69;1712037;84;21074;-62
2021/08/16 09:08:29;;;;;;;18.15;6.83;;;;;;;28.94;47.24;98463.52;1685989;84;21084;-62
2021/08/16 09:11:13;;;;;;;16.17;6.85;;;;;;;28.99;47.07;98460.58;1679887;85;21039;-58
2021/08/16 09:14:01;;;;;;;14.38;6.37;;;;;;;29.04;47.01;98459.00;1682324;85;21011;-61
2021/08/16 09:16:32;;;;;;;13.28;6.60;;;;;;;29.11;47.30;98463.86;1682457;85;21058;-61
2021/08/16 09:18:59;;;;;;;;;;;;;;;29.22;46.70;98458.77;1685333;85;21083;-59
2021/08/16 09:21:39;;;;;;;11.50;6.50;;;;;;;29.32;46.23;98461.82;1664259;86;20149;-61
2021/08/16 09:24:06;;;;;;;13.08;6.40;;;;;;;29.46;45.70;98460.09;1682197;84;21047;-60
2021/08/16 09:26:40;;;;;;;14.25;6.90;;;;;;;29.57;45.38;98463.16;1726448;83;21581;-65
2021/08/16 09:29:16;;;;;;;14.95;6.62;;;;;;;29.67;45.31;98452.41;1726652;83;21561;-60
2021/08/16 09:32:00;;;;;;;16.32;7.10;;;;;;;29.80;45.10;98453.94;1726497;83;21044;-61
2021/08/16 09:34:46;;;;;;;16.40;7.30;;;;;;;29.93;44.81;98438.37;1726510;83;21039;-61
2021/08/16 09:37:25;;;;;;;12.63;6.70;;;;;;;30.03;44.69;98445.48;1726326;83;21099;-65
2021/08/16 09:40:05;;;;;;;15.03;7.67;;;;;;;30.14;44.38;98434.93;1726729;83;20983;-61
2021/08/16 09:42:53;;;;;;;14.15;7.10;;;;;;;30.21;44.40;98439.77;1726453;83;22047;-60
2021/08/16 09:45:38;;;;;;;14.55;7.35;;;;;;;30.28;44.62;98431.25;1726541;83;21074;-63
2021/08/16 09:48:07;;;;;;;13.32;7.10;;;;;;;30.35;44.76;98430.64;1726550;83;21024;-62
2021/08/16 09:50:44;;;;;;;13.93;7.05;;;;;;;30.37;43.59;98431.86;1726455;83;21518;-61
2021/08/16 09:53:17;;;;;;;20.15;7.70;;;;;;;30.36;43.23;98426.78;1726408;83;21035;-61
2021/08/16 09:55:52;;;;;;;21.05;7.80;;;;;;;30.33;42.87;98426.10;1726679;82;21019;-60
2021/08/16 09:58:21;;;;;;;14.93;7.40;;;;;;;30.31;42.96;98421.59;1723017;83;21043;-62
2021/08/16 10:00:52;;;;;;;16.87;7.37;;;;;;;30.32;42.91;98417.16;1719880;83;21050;-63
2021/08/16 10:03:20;;;;;;;18.65;7.58;;;;;;;30.34;43.05;98414.11;1719862;83;21066;-64
2021/08/16 10:05:51;;;;;;;16.27;7.30;;;;;;;30.34;43.05;98423.63;1719411;83;21508;-63
2021/08/16 10:08:23;;;;;;;16.45;7.97;;;;;;;30.35;43.12;98422.48;1720091;83;21000;-60
2021/08/16 10:10:55;;;;;;;18.20;8.48;;;;;;;30.35;43.11;98411.61;1703156;83;21043;-61
2021/08/16 10:13:23;;;;;;;26.05;9.30;;;;;;;30.27;42.89;98413.91;1730109;83;21041;-59
2021/08/16 10:16:00;;;;;;;26.42;9.90;;;;;;;30.19;43.10;98417.02;1731508;83;21082;-59
2021/08/16 10:18:37;;;;;;;24.10;9.60;;;;;;;30.16;43.48;98421.77;1734580;83;21082;-59
2021/08/16 10:21:06;;;;;;;31.30;13.88;;;;;;;30.21;43.45;98417.45;1726819;83;21554;-59
2021/08/16 10:23:41;;;;;;;20.80;9.30;;;;;;;30.28;43.39;98402.70;1706908;83;21515;-63
2021/08/16 10:26:09;;;;;;;17.67;7.65;;;;;;;30.35;42.93;98402.09;1702302;84;21149;-60
2021/08/16 10:28:37;;;;;;;23.50;10.98;;;;;;;30.32;42.89;98401.42;1676229;84;21055;-57
2021/08/16 10:31:05;;;;;;;80.32;46.10;;;;;;;30.39;42.66;98390.17;1615743;86;21095;-59
2021/08/16 10:33:44;;;;;;;40.38;23.10;;;;;;;30.43;42.06;98396.27;1660113;85;21103;-59
2021/08/16 10:36:22;;;;;;;31.87;17.37;;;;;;;30.46;42.08;98394.22;1674433;86;21060;-56
2021/08/16 10:38:56;;;;;;;27.17;14.23;;;;;;;30.47;41.90;98399.87;1675612;85;21040;-60
2021/08/16 10:41:42;;;;;;;64.00;44.35;;;;;;;30.45;42.26;98399.41;1675615;85;21503;-58
2021/08/16 10:44:17;;;;;;;48.35;31.45;;;;;;;30.47;42.15;98391.71;1706126;83;21023;-58
2021/08/16 10:47:00;;;;;;;35.90;22.98;;;;;;;30.30;42.32;98386.04;1703708;84;21046;-59
2021/08/16 10:49:32;;;;;;;27.58;15.55;;;;;;;30.20;42.80;98398.78;1700410;84;21107;-58
2021/08/16 10:52:00;;;;;;;16.12;7.83;;;;;;;30.13;42.92;98389.30;1704193;83;21087;-58
2021/08/16 10:54:30;;;;;;;17.57;10.38;;;;;;;30.16;43.23;98390.52;1704440;83;21075;-61
2021/08/16 10:56:58;;;;;;;16.55;8.83;;;;;;;30.33;43.01;98388.83;1703531;84;21026;-56
2021/08/16 10:59:28;;;;;;;21.00;8.53;;;;;;;30.48;42.54;98379.69;1689122;84;21071;-64
2021/08/16 11:01:57;;;;;;;18.37;8.78;;;;;;;30.55;42.44;98382.00;1662575;84;21028;-58
2021/08/16 11:04:40;;;;;;;17.77;9.10;;;;;;;30.64;42.06;98381.84;1675558;84;21600;-61
2021/08/16 11:07:09;;;;;;;20.57;8.50;;;;;;;30.66;41.89;98381.69;1651899;84;21110;-64
2021/08/16 11:09:39;;;;;;;15.15;7.47;;;;;;;30.69;41.90;98378.89;1691459;84;21031;-60
2021/08/16 11:12:10;;;;;;;16.27;8.40;;;;;;;30.79;42.00;98374.82;1731814;82;21035;-60
2021/08/16 11:14:41;;;;;;;19.45;8.23;;;;;;;30.94;41.96;98374.02;1716492;83;21173;-58
2021/08/16 11:17:11;;;;;;;14.60;7.90;;;;;;;31.12;41.79;98359.45;1731761;83;21075;-62
2021/08/16 11:19:47;;;;;;;17.60;8.15;;;;;;;31.22;41.34;98354.81;1706986;83;20992;-58
2021/08/16 11:22:16;;;;;;;17.20;8.35;;;;;;;31.26;41.28;98357.66;1718001;83;21038;-61
2021/08/16 11:24:46;;;;;;;35.80;23.40;;;;;;;31.33;41.09;98359.16;1721823;83;20975;-60
2021/08/16 11:27:22;;;;;;;33.55;20.77;;;;;;;31.45;40.86;98346.77;1722831;83;21055;-61
2021/08/16 11:30:01;;;;;;;21.70;12.13;;;;;;;31.56;40.85;98347.77;1698413;83;21496;-58
2021/08/16 11:32:30;;;;;;;19.67;9.60;;;;;;;31.61;40.58;98343.39;1712500;83;21042;-58
2021/08/16 11:34:58;;;;;;;19.50;9.30;;;;;;;31.61;40.72;98341.25;1702205;84;21731;-57
2021/08/16 11:37:33;;;;;;;14.28;7.20;;;;;;;31.57;40.50;98340.37;1702879;84;21035;-58
2021/08/16 11:40:05;;;;;;;14.10;7.28;;;;;;;31.48;40.86;98334.34;1703230;82;21063;-56
2021/08/16 11:42:35;;;;;;;15.35;7.92;;;;;;;31.32;41.21;98338.52;1722654;82;20995;-59
2021/08/16 11:45:09;;;;;;;16.90;8.40;;;;;;;31.20;41.66;98333.40;1684013;85;21100;-59
2021/08/16 11:47:39;;;;;;;18.95;7.70;;;;;;;31.12;42.16;98329.50;1692472;83;21016;-61
2021/08/16 11:50:12;;;;;;;14.13;7.50;;;;;;;31.01;42.39;98333.34;1717351;83;21040;-66
2021/08/16 11:52:40;;;;;;;17.00;7.50;;;;;;;30.93;42.85;98328.33;1708742;83;21019;-68
2021/08/16 11:55:09;;;;;;;14.87;7.53;;;;;;;30.88;42.97;98338.13;1723571;81;21131;-65
2021/08/16 11:57:40;;;;;;;14.15;7.37;;;;;;;30.82;43.53;98325.94;1685104;85;21038;-64
2021/08/16 12:00:11;;;;;;;16.97;7.65;;;;;;;30.78;43.60;98322.92;1703981;83;21068;-64
2021/08/16 12:02:41;;;;;;;17.20;7.40;;;;;;;30.78;43.90;98316.12;1720285;83;21043;-67
2021/08/16 12:05:10;;;;;;;17.82;7.65;;;;;;;30.79;44.23;98314.97;1708630;83;21068;-57
2021/08/16 12:07:38;;;;;;;18.87;7.78;;;;;;;30.86;44.48;98307.78;1723565;83;21098;-64
2021/08/16 12:10:15;;;;;;;16.35;8.20;;;;;;;31.00;44.20;98307.28;1724229;83;21051;-62
2021/08/16 12:12:43;;;;;;;14.45;7.58;;;;;;;31.20;43.59;98301.30;1724407;83;21494;-62
2021/08/16 12:15:17;;;;;;;16.57;7.93;;;;;;;31.42;43.10;98299.80;1724329;83;21577;-64
2021/08/16 12:17:45;;;;;;;16.23;8.03;;;;;;;31.55;42.21;98303.19;1709973;83;21059;-63
2021/08/16 12:20:15;;;;;;;19.23;7.75;;;;;;;31.43;42.29;98296.75;1715382;83;21056;-62
2021/08/16 12:22:57;;;;;;;;;;;;;;;31.24;42.34;98286.38;1686474;85;21582;-61
2021/08/16 12:25:22;;;;;;;12.70;7.15;;;;;;;31.09;42.33;98288.83;1683793;83;20469;-60
2021/08/16 12:28:02;;;;;;;15.85;8.23;;;;;;;31.02;42.72;98285.94;1687494;85;21535;-61
2021/08/16 12:30:34;;;;;;;17.27;9.30;;;;;;;31.03;42.86;98282.09;1693524;83;21064;-62
2021/08/16 12:33:13;;;;;;;22.85;9.73;;;;;;;30.94;42.99;98286.94;1686538;83;21087;-57
2021/08/16 12:35:56;;;;;;;20.45;10.05;;;;;;;30.79;42.97;98281.75;1686331;85;21020;-57
2021/08/16 12:38:30;;;;;;;14.98;8.20;;;;;;;30.64;43.35;98282.56;1686318;85;21512;-61
2021/08/16 12:41:06;;;;;;;18.62;8.38;;;;;;;30.54;43.34;98283.10;1696205;83;21000;-60
2021/08/16 12:43:44;;;;;;;13.70;7.70;;;;;;;30.46;43.08;98285.45;1734916;82;21525;-57
2021/08/16 12:46:13;;;;;;;17.30;7.72;;;;;;;30.35;43.21;98287.34;1710182;82;21030;-59
2021/08/16 12:48:44;;;;;;;23.55;8.50;;;;;;;30.20;43.17;98282.69;1724004;83;21507;-61
2021/08/16 12:51:12;;;;;;;16.45;7.55;;;;;;;30.02;43.43;98275.42;1724401;83;21074;-57
2021/08/16 12:53:41;;;;;;;16.87;7.80;;;;;;;29.85;43.92;98277.13;1707845;83;21039;-59
2021/08/16 12:56:10;;;;;;;16.23;8.00;;;;;;;29.72;44.44;98273.69;1687153;83;21626;-59
2021/08/16 12:58:40;;;;;;;17.50;8.43;;;;;;;29.61;44.94;98280.20;1692004;83;21570;-60
2021/08/16 13:01:07;;;;;;;24.98;8.83;;;;;;;29.52;45.53;98283.63;1700005;84;21032;-56
2021/08/16 13:03:36;;;;;;;22.90;10.78;;;;;;;29.46;45.96;98278.19;1702774;84;21032;-58
2021/08/16 13:06:04;;;;;;;19.10;10.00;;;;;;;29.38;46.57;98270.21;1655912;86;21068;-57
2021/08/16 13:08:34;;;;;;;22.30;10.23;;;;;;;29.28;47.04;98270.13;1675337;86;21567;-59
2021/08/16 13:11:02;;;;;;;20.37;9.50;;;;;;;29.23;47.26;98264.38;1677626;85;21091;-60
2021/08/16 13:13:31;;;;;;;16.62;8.55;;;;;;;29.24;47.62;98265.95;1679657;85;21056;-57
2021/08/16 13:15:58;;;;;;;17.55;9.10;;;;;;;29.29;47.84;98264.34;1679717;85;21059;-61
2021/08/16 13:18:28;;;;;;;20.65;8.78;;;;;;;29.41;47.40;98258.08;1678592;85;21016;-59
2021/08/16 13:20:59;;;;;;;25.25;8.95;;;;;;;29.46;47.26;98259.75;1688400;85;21027;-59
2021/08/16 13:23:28;;;;;;;24.80;8.75;;;;;;;29.47;47.01;98258.05;1660085;86;21079;-59
2021/08/16 13:25:57;;;;;;;24.52;9.28;;;;;;;29.62;46.99;98260.61;1689210;85;21051;-58
2021/08/16 13:28:25;;;;;;;18.90;8.33;;;;;;;29.76;46.86;98259.61;1660661;86;21092;-57
2021/08/16 13:30:55;;;;;;;21.42;8.93;;;;;;;29.91;46.71;98256.70;1687599;85;21110;-58
2021/08/16 13:33:25;;;;;;;18.20;8.00;;;;;;;30.09;46.66;98253.86;1634057;86;21044;-60
2021/08/16 13:35:55;;;;;;;14.58;7.53;;;;;;;30.28;46.40;98249.12;1639653;86;21089;-59
2021/08/16 13:38:23;;;;;;;13.68;7.45;;;;;;;30.41;46.75;98244.36;1630282;88;21064;-59
2021/08/16 13:40:50;;;;;;;14.23;7.83;;;;;;;30.48;46.23;98241.01;1659814;84;21064;-58
2021/08/16 13:43:18;;;;;;;14.63;7.20;;;;;;;30.44;45.85;98235.48;1705895;84;21088;-57
2021/08/16 13:45:46;;;;;;;16.48;7.58;;;;;;;30.39;46.46;98233.03;1674404;84;21189;-57
2021/08/16 13:48:15;;;;;;;12.47;7.05;;;;;;;30.36;46.53;98231.81;1681704;84;21543;-57
2021/08/16 13:50:45;;;;;;;15.67;8.00;;;;;;;30.25;45.95;98225.34;1690826;84;20984;-57
2021/08/16 13:53:13;;;;;;;16.73;8.00;;;;;;;30.10;46.17;98223.39;1679429;84;21008;-63
2021/08/16 13:55:41;;;;;;;17.07;9.73;;;;;;;29.96;46.54;98221.70;1658534;85;21159;-62
2021/08/16 13:58:09;;;;;;;17.90;8.53;;;;;;;29.87;46.72;98223.22;1674963;84;21024;-61
2021/08/16 14:00:38;;;;;;;17.95;8.55;;;;;;;29.83;46.86;98219.08;1671808;86;21083;-63
